createdAt,value
2022-08-11T00:01:32.057Z,101540.52
2022-08-11T00:06:43.901Z,101541.25
2022-08-11T00:11:52.089Z,101538.29
2022-08-11T00:17:01.303Z,101541.10
2022-08-11T00:22:09.094Z,101542.99
2022-08-11T00:27:15.175Z,101545.86
2022-08-11T00:32:22.069Z,101541.67
2022-08-11T00:37:28.871Z,101541.67
2022-08-11T00:42:48.331Z,101539.28
2022-08-11T00:48:02.937Z,101537.16
2022-08-11T00:53:26.206Z,101534.83
2022-08-11T00:59:26.336Z,101541.98
2022-08-11T01:05:24.627Z,101541.12
2022-08-11T01:10:54.684Z,101543.65
2022-08-11T01:16:33.000Z,101544.39
2022-08-11T01:22:15.948Z,101543.80
2022-08-11T01:27:49.721Z,101541.17
2022-08-11T01:33:50.070Z,101533.91
2022-08-11T01:39:24.849Z,101537.63
2022-08-11T01:45:03.905Z,101542.29
2022-08-11T01:50:18.828Z,101547.66
2022-08-11T01:55:32.357Z,101546.86
2022-08-11T02:00:52.060Z,101546.56
2022-08-11T02:06:25.171Z,101548.19
2022-08-11T02:11:35.532Z,101547.58
2022-08-11T02:17:07.421Z,101545.68
2022-08-11T02:22:48.102Z,101542.92
2022-08-11T02:28:01.437Z,101551.51
2022-08-11T02:33:25.033Z,101556.29
2022-08-11T02:38:43.442Z,101562.29
2022-08-11T02:44:04.541Z,101561.91
2022-08-11T02:49:37.158Z,101558.10
2022-08-11T02:54:51.118Z,101560.77
2022-08-11T03:00:07.554Z,101562.70
2022-08-11T03:05:26.510Z,101568.70
2022-08-11T03:10:42.437Z,101563.73
2022-08-11T03:16:17.242Z,101565.55
2022-08-11T03:21:52.371Z,101567.33
2022-08-11T03:27:07.609Z,101563.65
2022-08-11T03:32:29.198Z,101566.58
2022-08-11T03:37:53.282Z,101569.73
2022-08-11T03:43:07.874Z,101573.34
2022-08-11T03:48:25.247Z,101574.32
2022-08-11T03:53:56.026Z,101569.46
2022-08-11T03:59:24.892Z,101572.42
2022-08-11T04:05:01.992Z,101573.65
2022-08-11T04:10:33.289Z,101574.70
2022-08-11T04:16:12.532Z,101567.59
2022-08-11T04:21:41.826Z,101570.52
2022-08-11T04:27:37.075Z,101571.38
2022-08-11T04:33:29.942Z,101569.20
2022-08-11T04:39:09.170Z,101574.50
2022-08-11T04:44:54.655Z,101575.90
2022-08-11T04:50:39.936Z,101576.88
2022-08-11T04:56:21.502Z,101580.08
2022-08-11T05:01:42.714Z,101576.85
2022-08-11T05:07:30.385Z,101575.35
2022-08-11T05:12:47.188Z,101574.91
2022-08-11T05:18:21.569Z,101571.13
2022-08-11T05:23:47.781Z,101575.04
2022-08-11T05:29:20.173Z,101572.41
2022-08-11T05:34:51.716Z,101576.01
2022-08-11T05:40:26.119Z,101579.25
2022-08-11T05:46:02.444Z,101578.99
2022-08-11T05:51:29.954Z,101571.90
2022-08-11T05:56:47.688Z,101569.14
2022-08-11T06:01:53.934Z,101562.84
2022-08-11T06:07:04.022Z,101565.22
2022-08-11T06:12:20.392Z,101559.11
2022-08-11T06:17:39.181Z,101572.77
2022-08-11T06:22:52.459Z,101572.79
2022-08-11T06:27:59.900Z,101579.58
2022-08-11T06:33:09.240Z,101584.73
2022-08-11T06:38:23.686Z,101584.85
2022-08-11T06:43:38.899Z,101584.55
2022-08-11T06:48:46.432Z,101568.63
2022-08-11T06:54:04.166Z,101560.14
2022-08-11T06:59:31.317Z,101552.51
2022-08-11T07:04:53.932Z,101559.54
2022-08-11T07:10:42.417Z,101556.49
2022-08-11T07:16:10.469Z,101552.04
2022-08-11T07:22:02.832Z,101557.70
2022-08-11T07:27:35.603Z,101556.88
2022-08-11T07:32:50.346Z,101558.07
2022-08-11T07:38:02.570Z,101557.30
2022-08-11T07:43:12.010Z,101557.88
2022-08-11T07:48:37.670Z,101558.44
2022-08-11T07:53:58.435Z,101553.61
2022-08-11T08:00:03.807Z,101548.39
2022-08-11T08:05:16.935Z,101549.00
2022-08-11T08:10:41.972Z,101550.27
2022-08-11T08:16:06.958Z,101540.40
2022-08-11T08:21:14.618Z,101539.91
2022-08-11T08:26:39.925Z,101539.97
2022-08-11T08:31:48.445Z,101533.61
2022-08-11T08:36:55.060Z,101532.65
2022-08-11T08:42:02.894Z,101530.45
2022-08-11T08:47:10.787Z,101525.88
2022-08-11T08:52:29.439Z,101532.39
2022-08-11T08:57:41.650Z,101532.39
2022-08-11T09:02:48.622Z,101530.31
2022-08-11T09:07:58.099Z,101532.56
2022-08-11T09:13:06.645Z,101531.15
2022-08-11T09:18:13.944Z,101524.73
2022-08-11T09:24:11.265Z,101526.29
2022-08-11T09:29:04.677Z,101524.91
2022-08-11T09:34:11.905Z,101519.16
2022-08-11T09:39:37.965Z,101513.74
2022-08-11T09:44:51.086Z,101510.81
2022-08-11T09:50:00.675Z,101505.02
2022-08-11T09:55:12.066Z,101502.55
2022-08-11T10:00:18.705Z,101498.80
2022-08-11T10:05:44.813Z,101503.50
2022-08-11T10:10:51.181Z,101493.36
2022-08-11T10:16:15.710Z,101496.23
2022-08-11T10:21:30.397Z,101488.02
2022-08-11T10:26:55.277Z,101480.82
2022-08-11T10:32:21.778Z,101475.20
2022-08-11T10:38:08.357Z,101456.20
2022-08-11T10:43:07.534Z,101451.88
2022-08-11T10:48:15.654Z,101455.10
2022-08-11T10:53:42.301Z,101449.26
2022-08-11T10:58:51.994Z,101439.77
2022-08-11T11:03:58.986Z,101439.75
2022-08-11T11:09:08.676Z,101430.48
2022-08-11T11:14:45.793Z,101416.55
2022-08-11T11:19:57.796Z,101414.86
2022-08-11T11:25:16.756Z,101417.39
2022-08-11T11:30:28.019Z,101403.09
2022-08-11T11:35:40.517Z,101396.77
2022-08-11T11:41:07.403Z,101389.78
2022-08-11T11:46:14.091Z,101384.33
2022-08-11T11:51:20.661Z,101378.80
2022-08-11T11:56:27.461Z,101382.61
2022-08-11T12:01:37.752Z,101374.02
2022-08-11T12:06:45.238Z,101368.45
2022-08-11T12:12:10.402Z,101363.16
2022-08-11T12:17:16.322Z,101359.98
2022-08-11T12:22:41.099Z,101349.00
2022-08-11T12:27:47.138Z,101340.63
2022-08-11T12:32:53.888Z,101346.00
2022-08-11T12:38:09.877Z,101339.20
2022-08-11T12:43:39.560Z,101336.27
2022-08-11T12:49:06.713Z,101336.61
2022-08-11T12:54:25.305Z,101335.91
2022-08-11T12:59:51.467Z,101338.55
2022-08-11T13:04:59.409Z,101336.02
2022-08-11T13:10:11.222Z,101335.89
2022-08-11T13:15:25.657Z,101331.41
2022-08-11T13:20:32.232Z,101340.34
2022-08-11T13:25:40.592Z,101332.02
2022-08-11T13:31:06.175Z,101321.00
2022-08-11T13:36:15.887Z,101323.30
2022-08-11T13:41:39.147Z,101318.00
2022-08-11T13:46:46.309Z,101312.09
2022-08-11T13:51:56.838Z,101306.48
2022-08-11T13:57:08.260Z,101304.70
2022-08-11T14:02:28.261Z,101299.55
2022-08-11T14:07:39.287Z,101309.45
2022-08-11T14:13:12.958Z,101309.24
2022-08-11T14:18:23.666Z,101311.55
2022-08-11T14:23:35.568Z,101316.26
2022-08-11T14:28:45.061Z,101319.20
2022-08-11T14:34:00.346Z,101320.16
2022-08-11T14:39:12.941Z,101320.68
2022-08-11T14:44:41.661Z,101323.82
2022-08-11T14:49:58.042Z,101330.09
2022-08-11T14:55:36.111Z,101323.97
2022-08-11T15:00:43.725Z,101318.74
2022-08-11T15:05:57.534Z,101312.94
2022-08-11T15:11:24.514Z,101301.71
2022-08-11T15:16:50.142Z,101295.59
2022-08-11T15:22:14.932Z,101292.63
2022-08-11T15:27:41.498Z,101292.19
2022-08-11T15:33:10.251Z,101290.70
2022-08-11T15:38:20.194Z,101297.98
2022-08-11T15:43:48.420Z,101282.64
2022-08-11T15:49:01.467Z,101278.95
2022-08-11T15:54:11.469Z,101279.10
2022-08-11T15:59:41.535Z,101277.36
2022-08-11T16:04:50.179Z,101285.05
2022-08-11T16:10:00.575Z,101278.55
2022-08-11T16:15:28.748Z,101276.96
2022-08-11T16:20:35.682Z,101281.09
2022-08-11T16:27:02.995Z,101279.45
2022-08-11T16:31:11.849Z,101274.30
2022-08-11T16:36:37.626Z,101273.00
2022-08-11T16:42:03.850Z,101278.19
2022-08-11T16:47:13.098Z,101278.88
2022-08-11T16:52:19.650Z,101274.73
2022-08-11T16:57:46.370Z,101275.04
2022-08-11T17:03:12.926Z,101275.96
2022-08-11T17:08:45.209Z,101275.11
2022-08-11T17:14:10.075Z,101276.91
2022-08-11T17:20:40.582Z,101279.30
2022-08-11T17:24:51.362Z,101280.58
2022-08-11T17:30:01.373Z,101282.11
2022-08-11T17:35:30.253Z,101285.14
2022-08-11T17:40:39.082Z,101286.67
2022-08-11T17:46:08.115Z,101287.77
2022-08-11T17:51:39.824Z,101290.10
2022-08-11T17:57:05.481Z,101291.02
2022-08-11T18:02:42.394Z,101299.65
2022-08-11T18:08:11.980Z,101333.82
2022-08-11T18:13:38.786Z,101339.15
2022-08-11T18:19:03.965Z,101342.34
2022-08-11T18:24:33.071Z,101340.35
2022-08-11T18:30:01.848Z,101337.31
2022-08-11T18:35:31.370Z,101342.63
2022-08-11T18:40:56.884Z,101348.98
2022-08-11T18:46:25.291Z,101350.76
2022-08-11T18:51:50.343Z,101345.74
2022-08-11T18:57:19.449Z,101339.05
2022-08-11T19:02:49.518Z,101344.73
2022-08-11T19:08:17.447Z,101347.14
2022-08-11T19:13:44.598Z,101352.48
2022-08-11T19:19:12.027Z,101349.15
2022-08-11T19:24:38.235Z,101353.48
2022-08-11T19:30:13.250Z,101351.25
2022-08-11T19:35:39.480Z,101347.84
2022-08-11T19:41:05.179Z,101343.96
2022-08-11T19:46:30.792Z,101343.20
2022-08-11T19:51:56.961Z,101341.39
2022-08-11T19:57:24.554Z,101345.21
2022-08-11T20:02:48.990Z,101345.96
2022-08-11T20:08:16.264Z,101345.84
2022-08-11T20:13:46.379Z,101334.11
2022-08-11T20:19:16.833Z,101332.59
2022-08-11T20:24:42.398Z,101334.17
2022-08-11T20:30:08.491Z,101332.62
2022-08-11T20:35:33.342Z,101339.02
2022-08-11T20:40:59.658Z,101345.15
2022-08-11T20:46:26.147Z,101352.33
2022-08-11T20:51:50.571Z,101343.64
2022-08-11T20:57:18.971Z,101339.22
2022-08-11T21:02:46.075Z,101329.58
2022-08-11T21:08:14.911Z,101330.92
2022-08-11T21:13:42.099Z,101330.44
2022-08-11T21:19:08.761Z,101324.23
2022-08-11T21:24:37.494Z,101337.81
2022-08-11T21:30:09.543Z,101346.82
2022-08-11T21:35:36.609Z,101345.77
2022-08-11T21:41:12.297Z,101346.27
2022-08-11T21:46:41.209Z,101344.81
2022-08-11T21:52:05.697Z,101344.08
2022-08-11T21:57:34.056Z,101344.16
2022-08-11T22:03:00.393Z,101346.27
2022-08-11T22:08:25.401Z,101345.61
2022-08-11T22:14:06.096Z,101343.61
2022-08-11T22:19:34.725Z,101351.11
2022-08-11T22:24:59.856Z,101347.59
2022-08-11T22:30:26.631Z,101339.23
2022-08-11T22:35:53.181Z,101337.00
2022-08-11T22:41:18.126Z,101329.73
2022-08-11T22:46:43.908Z,101331.10
2022-08-11T22:52:11.210Z,101336.27
2022-08-11T22:57:36.521Z,101334.86
2022-08-11T23:03:01.439Z,101330.05
2022-08-11T23:08:27.685Z,101327.96
2022-08-11T23:13:53.561Z,101326.48
2022-08-11T23:20:07.551Z,101322.71
2022-08-11T23:25:03.623Z,101316.17
2022-08-11T23:30:30.137Z,101312.28
2022-08-11T23:35:59.597Z,101303.10
2022-08-11T23:41:28.871Z,101301.21
2022-08-11T23:46:54.074Z,101299.84
2022-08-11T23:52:19.482Z,101293.41
2022-08-11T23:57:49.219Z,101292.13
